CMP386 MHPR-MPTO
Flight info
| Callsign | CMP386 |
|---|---|
| Flight time | 1h 38m |
| Altitude | 37000 |
| Route | KANE1E KANEL TALAG ILLOS ANSON AROVI VUMA2B |
| Aircraft | B738/M-SDE3FGHIRWY/S |
Departure
| Time | 2026-05-07 01:33 |
|---|---|
| Airport | Palmerola International Airport (MHPR) |
Arrival
| Time | 2026-05-07 03:11 |
|---|---|
| Airport | Tocumen International Airport (MPTO) |
| Time | Latitude | Longitude | Altitude | Speed | Heading |
|---|---|---|---|---|---|
| 2026-05-07 01:00 | 14.39138 | -87.61853 | 2071 ft | 0 kts | 79° |
| 2026-05-07 01:25 | 14.39137 | -87.61853 | 2070 ft | 2 kts | 94° |
| 2026-05-07 01:25 | 14.39136 | -87.61854 | 2070 ft | 2 kts | 32° |
| 2026-05-07 01:25 | 14.39121 | -87.61866 | 2070 ft | 3 kts | 54° |
| 2026-05-07 01:25 | 14.39112 | -87.61883 | 2070 ft | 3 kts | 80° |
| 2026-05-07 01:26 | 14.39109 | -87.61902 | 2070 ft | 2 kts | 78° |
| 2026-05-07 01:26 | 14.39106 | -87.61915 | 2070 ft | 3 kts | 66° |
| 2026-05-07 01:26 | 14.39098 | -87.61928 | 2070 ft | 3 kts | 9° |
| 2026-05-07 01:26 | 14.39081 | -87.61925 | 2070 ft | 3 kts | 336° |
| 2026-05-07 01:27 | 14.39065 | -87.61918 | 2070 ft | 2 kts | 348° |
| 2026-05-07 01:27 | 14.39058 | -87.61917 | 2070 ft | 0 kts | 349° |
| 2026-05-07 01:30 | 14.39067 | -87.61919 | 2070 ft | 3 kts | 349° |
| 2026-05-07 01:30 | 14.39103 | -87.61925 | 2070 ft | 7 kts | 349° |
| 2026-05-07 01:30 | 14.39168 | -87.61938 | 2070 ft | 12 kts | 349° |
| 2026-05-07 01:30 | 14.39248 | -87.61971 | 2070 ft | 12 kts | 290° |
| 2026-05-07 01:31 | 14.39238 | -87.62063 | 2070 ft | 14 kts | 268° |
| 2026-05-07 01:31 | 14.39308 | -87.62121 | 2069 ft | 13 kts | 349° |
| 2026-05-07 01:31 | 14.39331 | -87.62173 | 2070 ft | 9 kts | 262° |
| 2026-05-07 01:31 | 14.39319 | -87.62243 | 2071 ft | 11 kts | 259° |
| 2026-05-07 01:32 | 14.39281 | -87.62306 | 2071 ft | 12 kts | 191° |
| 2026-05-07 01:32 | 14.39179 | -87.62292 | 2068 ft | 20 kts | 169° |
| 2026-05-07 01:32 | 14.38833 | -87.62227 | 2069 ft | 85 kts | 170° |
| 2026-05-07 01:32 | 14.38034 | -87.62076 | 2070 ft | 146 kts | 169° |
| 2026-05-07 01:33 | 14.36895 | -87.61862 | 2352 ft | 173 kts | 172° |
| 2026-05-07 01:33 | 14.35693 | -87.61646 | 3103 ft | 180 kts | 169° |
| 2026-05-07 01:33 | 14.34366 | -87.61404 | 3521 ft | 209 kts | 169° |
| 2026-05-07 01:33 | 14.32844 | -87.61115 | 3751 ft | 235 kts | 170° |
| 2026-05-07 01:34 | 14.31174 | -87.60797 | 4172 ft | 250 kts | 171° |
| 2026-05-07 01:34 | 14.29399 | -87.60461 | 4454 ft | 270 kts | 170° |
| 2026-05-07 01:34 | 14.27516 | -87.60108 | 5022 ft | 277 kts | 170° |
| 2026-05-07 01:34 | 14.25638 | -87.59757 | 6023 ft | 272 kts | 168° |
| 2026-05-07 01:35 | 14.23737 | -87.59821 | 6915 ft | 279 kts | 194° |
| 2026-05-07 01:35 | 14.22007 | -87.60771 | 7688 ft | 290 kts | 220° |
| 2026-05-07 01:35 | 14.20816 | -87.62428 | 8448 ft | 299 kts | 245° |
| 2026-05-07 01:35 | 14.20390 | -87.64531 | 9242 ft | 305 kts | 272° |
| 2026-05-07 01:36 | 14.20863 | -87.66650 | 10066 ft | 305 kts | 298° |
| 2026-05-07 01:36 | 14.22171 | -87.68348 | 10806 ft | 304 kts | 325° |
| 2026-05-07 01:36 | 14.24069 | -87.69244 | 11531 ft | 303 kts | 353° |
| 2026-05-07 01:36 | 14.26149 | -87.69137 | 12282 ft | 301 kts | 17° |
| 2026-05-07 01:37 | 14.28173 | -87.68473 | 12886 ft | 310 kts | 22° |
| 2026-05-07 01:37 | 14.30221 | -87.67698 | 13549 ft | 316 kts | 22° |
| 2026-05-07 01:37 | 14.32320 | -87.66885 | 14266 ft | 320 kts | 23° |
| 2026-05-07 01:37 | 14.34386 | -87.66092 | 14952 ft | 322 kts | 22° |
| 2026-05-07 01:38 | 14.36500 | -87.65293 | 15644 ft | 325 kts | 22° |
| 2026-05-07 01:38 | 14.38665 | -87.64482 | 16337 ft | 328 kts | 23° |
| 2026-05-07 01:38 | 14.40825 | -87.63680 | 17001 ft | 332 kts | 22° |
| 2026-05-07 01:38 | 14.43001 | -87.62876 | 17701 ft | 334 kts | 23° |
| 2026-05-07 01:39 | 14.45167 | -87.62078 | 18353 ft | 337 kts | 23° |
| 2026-05-07 01:39 | 14.47389 | -87.61259 | 18895 ft | 340 kts | 23° |
| 2026-05-07 01:39 | 14.49633 | -87.60432 | 19448 ft | 344 kts | 23° |
| 2026-05-07 01:39 | 14.51892 | -87.59601 | 20045 ft | 346 kts | 23° |
| 2026-05-07 01:40 | 14.54199 | -87.58751 | 20589 ft | 349 kts | 23° |
| 2026-05-07 01:40 | 14.56495 | -87.57905 | 21131 ft | 352 kts | 23° |
| 2026-05-07 01:40 | 14.58811 | -87.57052 | 21655 ft | 356 kts | 23° |
| 2026-05-07 01:40 | 14.61068 | -87.55997 | 22126 ft | 356 kts | 38° |
| 2026-05-07 01:41 | 14.62827 | -87.54239 | 22676 ft | 352 kts | 57° |
| 2026-05-07 01:41 | 14.63893 | -87.51985 | 23242 ft | 351 kts | 75° |
| 2026-05-07 01:41 | 14.64180 | -87.49487 | 23729 ft | 354 kts | 93° |
| 2026-05-07 01:41 | 14.63700 | -87.46991 | 24140 ft | 359 kts | 110° |
| 2026-05-07 01:42 | 14.62521 | -87.44694 | 24577 ft | 364 kts | 119° |
| 2026-05-07 01:42 | 14.61169 | -87.42480 | 25024 ft | 367 kts | 121° |
| 2026-05-07 01:42 | 14.59767 | -87.40269 | 25465 ft | 369 kts | 121° |
| 2026-05-07 01:42 | 14.58354 | -87.38041 | 25895 ft | 372 kts | 121° |
| 2026-05-07 01:43 | 14.56941 | -87.35792 | 26295 ft | 376 kts | 121° |
| 2026-05-07 01:43 | 14.55523 | -87.33514 | 26710 ft | 379 kts | 120° |
| 2026-05-07 01:43 | 14.54102 | -87.31215 | 27133 ft | 381 kts | 120° |
| 2026-05-07 01:43 | 14.52674 | -87.28896 | 27535 ft | 384 kts | 120° |
| 2026-05-07 01:44 | 14.51239 | -87.26561 | 27973 ft | 386 kts | 120° |
| 2026-05-07 01:44 | 14.49800 | -87.24219 | 28367 ft | 389 kts | 120° |
| 2026-05-07 01:44 | 14.48344 | -87.21849 | 28759 ft | 392 kts | 121° |
| 2026-05-07 01:44 | 14.46880 | -87.19469 | 29138 ft | 395 kts | 121° |
| 2026-05-07 01:45 | 14.45406 | -87.17074 | 29495 ft | 398 kts | 121° |
| 2026-05-07 01:45 | 14.43907 | -87.14660 | 29881 ft | 401 kts | 123° |
| 2026-05-07 01:45 | 14.42181 | -87.12385 | 30235 ft | 404 kts | 129° |
| 2026-05-07 01:45 | 14.40330 | -87.10185 | 30534 ft | 408 kts | 129° |
| 2026-05-07 01:46 | 14.38451 | -87.07992 | 30830 ft | 410 kts | 130° |
| 2026-05-07 01:46 | 14.36551 | -87.05781 | 31149 ft | 412 kts | 130° |
| 2026-05-07 01:46 | 14.34650 | -87.03564 | 31444 ft | 415 kts | 130° |
| 2026-05-07 01:46 | 14.32738 | -87.01326 | 31736 ft | 417 kts | 130° |
| 2026-05-07 01:47 | 14.30818 | -86.99071 | 32040 ft | 419 kts | 130° |
| 2026-05-07 01:47 | 14.28893 | -86.96805 | 32316 ft | 422 kts | 130° |
| 2026-05-07 01:47 | 14.26952 | -86.94517 | 32538 ft | 425 kts | 130° |
| 2026-05-07 01:47 | 14.25005 | -86.92220 | 32819 ft | 427 kts | 130° |
| 2026-05-07 01:48 | 14.23046 | -86.89909 | 33093 ft | 429 kts | 130° |
| 2026-05-07 01:48 | 14.21077 | -86.87586 | 33346 ft | 431 kts | 130° |
| 2026-05-07 01:48 | 14.19097 | -86.85250 | 33584 ft | 434 kts | 130° |
| 2026-05-07 01:48 | 14.17781 | -86.83699 | 33747 ft | 435 kts | 130° |
| 2026-05-07 01:49 | 14.15108 | -86.80549 | 34055 ft | 437 kts | 130° |
| 2026-05-07 01:49 | 14.13779 | -86.78983 | 34217 ft | 438 kts | 130° |
| 2026-05-07 01:49 | 14.11767 | -86.76613 | 34427 ft | 440 kts | 130° |
| 2026-05-07 01:49 | 14.09750 | -86.74237 | 34613 ft | 442 kts | 130° |
| 2026-05-07 01:50 | 14.07720 | -86.71847 | 34830 ft | 444 kts | 130° |
| 2026-05-07 01:50 | 14.05683 | -86.69449 | 34986 ft | 446 kts | 130° |
| 2026-05-07 01:50 | 14.03634 | -86.67038 | 35117 ft | 450 kts | 130° |
| 2026-05-07 01:50 | 14.01568 | -86.64609 | 35330 ft | 451 kts | 131° |
| 2026-05-07 01:51 | 13.99500 | -86.62177 | 35519 ft | 452 kts | 131° |
| 2026-05-07 01:51 | 13.97425 | -86.59738 | 35659 ft | 455 kts | 131° |
| 2026-05-07 01:51 | 13.95334 | -86.57281 | 35818 ft | 457 kts | 131° |
| 2026-05-07 01:51 | 13.93236 | -86.54817 | 36038 ft | 457 kts | 131° |
| 2026-05-07 01:52 | 13.91140 | -86.52354 | 36266 ft | 457 kts | 131° |
| 2026-05-07 01:52 | 13.89042 | -86.49891 | 36471 ft | 458 kts | 131° |
| 2026-05-07 01:52 | 13.86938 | -86.47422 | 36680 ft | 459 kts | 131° |
| 2026-05-07 01:52 | 13.84806 | -86.44920 | 36880 ft | 459 kts | 131° |
| 2026-05-07 01:53 | 13.82703 | -86.42454 | 36962 ft | 459 kts | 131° |
| 2026-05-07 01:53 | 13.78478 | -86.37499 | 37013 ft | 463 kts | 131° |
| 2026-05-07 01:53 | 13.76350 | -86.35006 | 37123 ft | 466 kts | 131° |
| 2026-05-07 01:54 | 13.74212 | -86.32500 | 37309 ft | 466 kts | 131° |
| 2026-05-07 01:54 | 13.72074 | -86.29997 | 37572 ft | 465 kts | 131° |
| 2026-05-07 01:54 | 13.69941 | -86.27498 | 37777 ft | 465 kts | 131° |
| 2026-05-07 01:54 | 13.67802 | -86.24995 | 37975 ft | 466 kts | 131° |
| 2026-05-07 01:55 | 13.65663 | -86.22493 | 38169 ft | 466 kts | 131° |
| 2026-05-07 01:55 | 13.63526 | -86.19992 | 38389 ft | 465 kts | 131° |
| 2026-05-07 01:55 | 13.61388 | -86.17492 | 38598 ft | 465 kts | 131° |
| 2026-05-07 01:55 | 13.59255 | -86.14997 | 38752 ft | 465 kts | 131° |
| 2026-05-07 01:56 | 13.57121 | -86.12502 | 38898 ft | 463 kts | 131° |
| 2026-05-07 01:56 | 13.52873 | -86.07539 | 38975 ft | 465 kts | 131° |
| 2026-05-07 01:57 | 13.48582 | -86.02529 | 38984 ft | 468 kts | 131° |
| 2026-05-07 01:57 | 13.44262 | -85.97489 | 38983 ft | 471 kts | 131° |
| 2026-05-07 01:58 | 13.39925 | -85.92430 | 38985 ft | 472 kts | 132° |
| 2026-05-07 01:58 | 13.35597 | -85.87385 | 38965 ft | 468 kts | 132° |
| 2026-05-07 01:59 | 13.31332 | -85.82416 | 38973 ft | 461 kts | 132° |
| 2026-05-07 01:59 | 13.27100 | -85.77490 | 38969 ft | 458 kts | 132° |
| 2026-05-07 02:00 | 13.22880 | -85.72580 | 38983 ft | 460 kts | 132° |
| 2026-05-07 02:00 | 13.18611 | -85.67617 | 38988 ft | 467 kts | 132° |
| 2026-05-07 02:01 | 13.14299 | -85.62605 | 38974 ft | 471 kts | 132° |
| 2026-05-07 02:01 | 13.09958 | -85.57562 | 38963 ft | 470 kts | 132° |
| 2026-05-07 02:02 | 13.05665 | -85.52577 | 38949 ft | 461 kts | 132° |
| 2026-05-07 02:02 | 13.01434 | -85.47667 | 38956 ft | 459 kts | 132° |
| 2026-05-07 02:03 | 12.97206 | -85.42767 | 38952 ft | 458 kts | 132° |
| 2026-05-07 02:03 | 12.92983 | -85.37873 | 38948 ft | 458 kts | 132° |
| 2026-05-07 02:04 | 12.88755 | -85.32975 | 38950 ft | 459 kts | 132° |
| 2026-05-07 02:04 | 12.84517 | -85.28070 | 38946 ft | 461 kts | 132° |
| 2026-05-07 02:05 | 12.80260 | -85.23144 | 38945 ft | 462 kts | 132° |
| 2026-05-07 02:05 | 12.75994 | -85.18210 | 38944 ft | 464 kts | 132° |
| 2026-05-07 02:06 | 12.71711 | -85.13261 | 38938 ft | 465 kts | 132° |
| 2026-05-07 02:06 | 12.67417 | -85.08301 | 38940 ft | 465 kts | 132° |
| 2026-05-07 02:07 | 12.63117 | -85.03336 | 38937 ft | 466 kts | 132° |
| 2026-05-07 02:07 | 12.56670 | -84.95899 | 38936 ft | 465 kts | 132° |
| 2026-05-07 02:08 | 12.52372 | -84.90944 | 38946 ft | 465 kts | 132° |
| 2026-05-07 02:08 | 12.48083 | -84.86002 | 38943 ft | 464 kts | 132° |
| 2026-05-07 02:09 | 12.43795 | -84.81063 | 38943 ft | 463 kts | 132° |
| 2026-05-07 02:09 | 12.39517 | -84.76140 | 38941 ft | 463 kts | 132° |
| 2026-05-07 02:10 | 12.35241 | -84.71221 | 38954 ft | 462 kts | 132° |
| 2026-05-07 02:10 | 12.30976 | -84.66316 | 38953 ft | 461 kts | 132° |
| 2026-05-07 02:11 | 12.26684 | -84.61385 | 38951 ft | 461 kts | 132° |
| 2026-05-07 02:11 | 12.22424 | -84.56492 | 38952 ft | 461 kts | 132° |
| 2026-05-07 02:12 | 12.18161 | -84.51598 | 38958 ft | 461 kts | 132° |
| 2026-05-07 02:12 | 12.13899 | -84.46708 | 38962 ft | 461 kts | 132° |
| 2026-05-07 02:13 | 12.09636 | -84.41820 | 38965 ft | 461 kts | 132° |
| 2026-05-07 02:13 | 12.05395 | -84.36958 | 38960 ft | 461 kts | 132° |
| 2026-05-07 02:14 | 12.01096 | -84.32034 | 38962 ft | 461 kts | 132° |
| 2026-05-07 02:14 | 11.96826 | -84.27144 | 38970 ft | 461 kts | 131° |
| 2026-05-07 02:15 | 11.92551 | -84.22252 | 38963 ft | 462 kts | 131° |
| 2026-05-07 02:15 | 11.88270 | -84.17356 | 38964 ft | 462 kts | 131° |
| 2026-05-07 02:16 | 11.83992 | -84.12465 | 38970 ft | 462 kts | 131° |
| 2026-05-07 02:16 | 11.79711 | -84.07573 | 38972 ft | 462 kts | 131° |
| 2026-05-07 02:17 | 11.75426 | -84.02680 | 38975 ft | 462 kts | 131° |
| 2026-05-07 02:17 | 11.71144 | -83.97792 | 38980 ft | 462 kts | 131° |
| 2026-05-07 02:18 | 11.66858 | -83.92902 | 38978 ft | 462 kts | 131° |
| 2026-05-07 02:18 | 11.62572 | -83.88015 | 38976 ft | 462 kts | 131° |
| 2026-05-07 02:19 | 11.58284 | -83.83127 | 38977 ft | 462 kts | 131° |
| 2026-05-07 02:19 | 11.53998 | -83.78245 | 38973 ft | 462 kts | 131° |
| 2026-05-07 02:20 | 11.49712 | -83.73364 | 38974 ft | 462 kts | 131° |
| 2026-05-07 02:20 | 11.45424 | -83.68483 | 38971 ft | 462 kts | 131° |
| 2026-05-07 02:21 | 11.41144 | -83.63614 | 38976 ft | 461 kts | 132° |
| 2026-05-07 02:21 | 11.36858 | -83.58742 | 38977 ft | 461 kts | 132° |
| 2026-05-07 02:22 | 11.32577 | -83.53877 | 38973 ft | 461 kts | 132° |
| 2026-05-07 02:22 | 11.28291 | -83.49007 | 38981 ft | 461 kts | 132° |
| 2026-05-07 02:23 | 11.24003 | -83.44138 | 38971 ft | 462 kts | 132° |
| 2026-05-07 02:23 | 11.19713 | -83.39268 | 38973 ft | 462 kts | 132° |
| 2026-05-07 02:24 | 11.15459 | -83.34374 | 38966 ft | 462 kts | 128° |
| 2026-05-07 02:24 | 11.11889 | -83.28938 | 38972 ft | 462 kts | 122° |
| 2026-05-07 02:25 | 11.08476 | -83.23400 | 38972 ft | 462 kts | 122° |
| 2026-05-07 02:25 | 11.05039 | -83.17876 | 38974 ft | 462 kts | 122° |
| 2026-05-07 02:26 | 11.02135 | -83.13260 | 38976 ft | 462 kts | 122° |
| 2026-05-07 02:26 | 10.98654 | -83.07752 | 38978 ft | 463 kts | 123° |
| 2026-05-07 02:27 | 10.95173 | -83.02247 | 38970 ft | 463 kts | 123° |
| 2026-05-07 02:27 | 10.91687 | -82.96737 | 38977 ft | 463 kts | 123° |
| 2026-05-07 02:28 | 10.88201 | -82.91226 | 38976 ft | 463 kts | 123° |
| 2026-05-07 02:28 | 10.84714 | -82.85718 | 38974 ft | 463 kts | 123° |
| 2026-05-07 02:29 | 10.81225 | -82.80208 | 38969 ft | 463 kts | 123° |
| 2026-05-07 02:29 | 10.77733 | -82.74696 | 38978 ft | 463 kts | 123° |
| 2026-05-07 02:30 | 10.74244 | -82.69192 | 38974 ft | 463 kts | 123° |
| 2026-05-07 02:30 | 10.70753 | -82.63687 | 38977 ft | 463 kts | 123° |
| 2026-05-07 02:31 | 10.67304 | -82.58156 | 38975 ft | 463 kts | 122° |
| 2026-05-07 02:31 | 10.63892 | -82.52612 | 38975 ft | 463 kts | 122° |
| 2026-05-07 02:32 | 10.60480 | -82.47072 | 38974 ft | 462 kts | 122° |
| 2026-05-07 02:32 | 10.57062 | -82.41538 | 38974 ft | 462 kts | 122° |
| 2026-05-07 02:33 | 10.53645 | -82.36014 | 38975 ft | 461 kts | 122° |
| 2026-05-07 02:33 | 10.50232 | -82.30500 | 38980 ft | 461 kts | 122° |
| 2026-05-07 02:34 | 10.46819 | -82.24989 | 38976 ft | 460 kts | 122° |
| 2026-05-07 02:34 | 10.43408 | -82.19484 | 38975 ft | 460 kts | 122° |
| 2026-05-07 02:35 | 10.40005 | -82.13994 | 38969 ft | 459 kts | 122° |
| 2026-05-07 02:35 | 10.36602 | -82.08508 | 38969 ft | 459 kts | 123° |
| 2026-05-07 02:36 | 10.33199 | -82.03024 | 38976 ft | 459 kts | 123° |
| 2026-05-07 02:36 | 10.29797 | -81.97544 | 38971 ft | 458 kts | 123° |
| 2026-05-07 02:37 | 10.26398 | -81.92071 | 38970 ft | 458 kts | 123° |
| 2026-05-07 02:37 | 10.23002 | -81.86606 | 38973 ft | 458 kts | 123° |
| 2026-05-07 02:38 | 10.19604 | -81.81141 | 38972 ft | 457 kts | 123° |
| 2026-05-07 02:38 | 10.16211 | -81.75684 | 38977 ft | 457 kts | 123° |
| 2026-05-07 02:39 | 10.12815 | -81.70227 | 38973 ft | 457 kts | 123° |
| 2026-05-07 02:39 | 10.09423 | -81.64780 | 38972 ft | 457 kts | 123° |
| 2026-05-07 02:40 | 10.06028 | -81.59330 | 38972 ft | 456 kts | 123° |
| 2026-05-07 02:40 | 10.02637 | -81.53887 | 38973 ft | 456 kts | 123° |
| 2026-05-07 02:41 | 9.99244 | -81.48445 | 38975 ft | 456 kts | 123° |
| 2026-05-07 02:41 | 9.97541 | -81.45716 | 38741 ft | 461 kts | 123° |
| 2026-05-07 02:41 | 9.95828 | -81.42970 | 38261 ft | 460 kts | 123° |
| 2026-05-07 02:42 | 9.94115 | -81.40225 | 37592 ft | 460 kts | 123° |
| 2026-05-07 02:42 | 9.92381 | -81.37448 | 37001 ft | 459 kts | 123° |
| 2026-05-07 02:42 | 9.90698 | -81.34751 | 36415 ft | 459 kts | 122° |
| 2026-05-07 02:42 | 9.88987 | -81.32012 | 35853 ft | 459 kts | 122° |
| 2026-05-07 02:43 | 9.87266 | -81.29255 | 35417 ft | 455 kts | 122° |
| 2026-05-07 02:43 | 9.85594 | -81.26580 | 34943 ft | 453 kts | 122° |
| 2026-05-07 02:43 | 9.83911 | -81.23885 | 34494 ft | 451 kts | 122° |
| 2026-05-07 02:43 | 9.82214 | -81.21171 | 34033 ft | 449 kts | 121° |
| 2026-05-07 02:44 | 9.80545 | -81.18500 | 33535 ft | 447 kts | 121° |
| 2026-05-07 02:44 | 9.78884 | -81.15845 | 33079 ft | 444 kts | 121° |
| 2026-05-07 02:44 | 9.77240 | -81.13216 | 32630 ft | 441 kts | 121° |
| 2026-05-07 02:44 | 9.75605 | -81.10602 | 32197 ft | 437 kts | 121° |
| 2026-05-07 02:45 | 9.73982 | -81.08008 | 31761 ft | 434 kts | 120° |
| 2026-05-07 02:45 | 9.72371 | -81.05435 | 31335 ft | 430 kts | 120° |
| 2026-05-07 02:45 | 9.70773 | -81.02882 | 30910 ft | 427 kts | 120° |
| 2026-05-07 02:45 | 9.69190 | -81.00354 | 30500 ft | 424 kts | 120° |
| 2026-05-07 02:46 | 9.67616 | -80.97839 | 30077 ft | 421 kts | 120° |
| 2026-05-07 02:46 | 9.66054 | -80.95344 | 29583 ft | 418 kts | 120° |
| 2026-05-07 02:46 | 9.64504 | -80.92870 | 29121 ft | 413 kts | 120° |
| 2026-05-07 02:46 | 9.62974 | -80.90426 | 28673 ft | 409 kts | 119° |
| 2026-05-07 02:47 | 9.61456 | -80.88003 | 28229 ft | 405 kts | 119° |
| 2026-05-07 02:47 | 9.59951 | -80.85604 | 27796 ft | 401 kts | 120° |
| 2026-05-07 02:47 | 9.58203 | -80.83407 | 27386 ft | 402 kts | 134° |
| 2026-05-07 02:47 | 9.56098 | -80.81575 | 27027 ft | 398 kts | 136° |
| 2026-05-07 02:48 | 9.53965 | -80.79801 | 26602 ft | 395 kts | 137° |
| 2026-05-07 02:48 | 9.51843 | -80.78050 | 26184 ft | 392 kts | 137° |
| 2026-05-07 02:48 | 9.49740 | -80.76305 | 25771 ft | 389 kts | 136° |
| 2026-05-07 02:48 | 9.47657 | -80.74562 | 25357 ft | 387 kts | 136° |
| 2026-05-07 02:49 | 9.45597 | -80.72825 | 24931 ft | 385 kts | 136° |
| 2026-05-07 02:49 | 9.43550 | -80.71092 | 24517 ft | 382 kts | 136° |
| 2026-05-07 02:49 | 9.41516 | -80.69365 | 24099 ft | 380 kts | 136° |
| 2026-05-07 02:49 | 9.39492 | -80.67645 | 23685 ft | 379 kts | 136° |
| 2026-05-07 02:50 | 9.37479 | -80.65933 | 23217 ft | 377 kts | 136° |
| 2026-05-07 02:50 | 9.35484 | -80.64236 | 22776 ft | 373 kts | 136° |
| 2026-05-07 02:50 | 9.33512 | -80.62562 | 22339 ft | 365 kts | 136° |
| 2026-05-07 02:50 | 9.31595 | -80.60936 | 21943 ft | 355 kts | 136° |
| 2026-05-07 02:51 | 9.29713 | -80.59336 | 21585 ft | 351 kts | 136° |
| 2026-05-07 02:51 | 9.27855 | -80.57758 | 21272 ft | 347 kts | 136° |
| 2026-05-07 02:51 | 9.26015 | -80.56194 | 20897 ft | 344 kts | 136° |
| 2026-05-07 02:51 | 9.24189 | -80.54642 | 20527 ft | 342 kts | 136° |
| 2026-05-07 02:52 | 9.22370 | -80.53096 | 20156 ft | 340 kts | 136° |
| 2026-05-07 02:52 | 9.20560 | -80.51558 | 19787 ft | 339 kts | 136° |
| 2026-05-07 02:52 | 9.18761 | -80.50031 | 19422 ft | 337 kts | 136° |
| 2026-05-07 02:52 | 9.16970 | -80.48510 | 19051 ft | 336 kts | 136° |
| 2026-05-07 02:53 | 9.15182 | -80.46992 | 18664 ft | 335 kts | 136° |
| 2026-05-07 02:53 | 9.13396 | -80.45476 | 18277 ft | 335 kts | 136° |
| 2026-05-07 02:53 | 9.11617 | -80.43966 | 17851 ft | 334 kts | 137° |
| 2026-05-07 02:53 | 9.09840 | -80.42459 | 17454 ft | 332 kts | 137° |
| 2026-05-07 02:54 | 9.08087 | -80.40973 | 17218 ft | 325 kts | 136° |
| 2026-05-07 02:54 | 9.06618 | -80.39311 | 17041 ft | 312 kts | 119° |
| 2026-05-07 02:54 | 9.05786 | -80.37318 | 16719 ft | 307 kts | 103° |
| 2026-05-07 02:54 | 9.05336 | -80.35215 | 16423 ft | 306 kts | 100° |
| 2026-05-07 02:55 | 9.04950 | -80.33097 | 16103 ft | 307 kts | 99° |
| 2026-05-07 02:55 | 9.04575 | -80.30971 | 15788 ft | 306 kts | 99° |
| 2026-05-07 02:55 | 9.04198 | -80.28854 | 15469 ft | 305 kts | 99° |
| 2026-05-07 02:55 | 9.03817 | -80.26745 | 15154 ft | 305 kts | 100° |
| 2026-05-07 02:56 | 9.03433 | -80.24645 | 14840 ft | 304 kts | 100° |
| 2026-05-07 02:56 | 9.03045 | -80.22547 | 14523 ft | 303 kts | 100° |
| 2026-05-07 02:56 | 9.02650 | -80.20429 | 14196 ft | 302 kts | 100° |
| 2026-05-07 02:56 | 9.02264 | -80.18365 | 13886 ft | 302 kts | 100° |
| 2026-05-07 02:57 | 9.01874 | -80.16284 | 13543 ft | 301 kts | 100° |
| 2026-05-07 02:57 | 9.01484 | -80.14208 | 13208 ft | 299 kts | 100° |
| 2026-05-07 02:57 | 9.01096 | -80.12148 | 12886 ft | 297 kts | 100° |
| 2026-05-07 02:57 | 9.00705 | -80.10076 | 12565 ft | 295 kts | 100° |
| 2026-05-07 02:58 | 9.00323 | -80.08046 | 12259 ft | 293 kts | 100° |
| 2026-05-07 02:58 | 8.99943 | -80.06028 | 11950 ft | 291 kts | 100° |
| 2026-05-07 02:58 | 8.99565 | -80.04028 | 11653 ft | 289 kts | 100° |
| 2026-05-07 02:58 | 8.99189 | -80.02034 | 11350 ft | 287 kts | 100° |
| 2026-05-07 02:59 | 8.98816 | -80.00055 | 11057 ft | 286 kts | 100° |
| 2026-05-07 02:59 | 8.98444 | -79.98085 | 10757 ft | 285 kts | 100° |
| 2026-05-07 02:59 | 8.98072 | -79.96116 | 10459 ft | 284 kts | 100° |
| 2026-05-07 02:59 | 8.97703 | -79.94161 | 10169 ft | 282 kts | 100° |
| 2026-05-07 03:00 | 8.97335 | -79.92212 | 9857 ft | 282 kts | 100° |
| 2026-05-07 03:00 | 8.96970 | -79.90278 | 9522 ft | 277 kts | 100° |
| 2026-05-07 03:00 | 8.96611 | -79.88382 | 9222 ft | 273 kts | 100° |
| 2026-05-07 03:00 | 8.96257 | -79.86506 | 8931 ft | 271 kts | 100° |
| 2026-05-07 03:01 | 8.95903 | -79.84637 | 8641 ft | 270 kts | 100° |
| 2026-05-07 03:01 | 8.95552 | -79.82779 | 8360 ft | 268 kts | 100° |
| 2026-05-07 03:01 | 8.95201 | -79.80928 | 8074 ft | 268 kts | 100° |
| 2026-05-07 03:01 | 8.94852 | -79.79085 | 7789 ft | 267 kts | 100° |
| 2026-05-07 03:02 | 8.94621 | -79.77865 | 7611 ft | 266 kts | 100° |
| 2026-05-07 03:02 | 8.94272 | -79.76022 | 7329 ft | 266 kts | 100° |
| 2026-05-07 03:02 | 8.93924 | -79.74186 | 7049 ft | 266 kts | 100° |
| 2026-05-07 03:02 | 8.93576 | -79.72351 | 6759 ft | 266 kts | 100° |
| 2026-05-07 03:03 | 8.93239 | -79.70570 | 6494 ft | 266 kts | 99° |
| 2026-05-07 03:03 | 8.93043 | -79.69538 | 6340 ft | 266 kts | 100° |
| 2026-05-07 03:03 | 8.92695 | -79.67703 | 6051 ft | 266 kts | 99° |
| 2026-05-07 03:03 | 8.92347 | -79.65865 | 5765 ft | 266 kts | 99° |
| 2026-05-07 03:04 | 8.91999 | -79.64029 | 5474 ft | 265 kts | 99° |
| 2026-05-07 03:04 | 8.91660 | -79.62243 | 5214 ft | 252 kts | 99° |
| 2026-05-07 03:04 | 8.91337 | -79.60550 | 4900 ft | 240 kts | 99° |
| 2026-05-07 03:04 | 8.91030 | -79.58932 | 4626 ft | 228 kts | 99° |
| 2026-05-07 03:05 | 8.90740 | -79.57400 | 4426 ft | 216 kts | 99° |
| 2026-05-07 03:05 | 8.90462 | -79.55934 | 4228 ft | 208 kts | 99° |
| 2026-05-07 03:05 | 8.90194 | -79.54525 | 4020 ft | 201 kts | 99° |
| 2026-05-07 03:05 | 8.89935 | -79.53156 | 3806 ft | 196 kts | 99° |
| 2026-05-07 03:06 | 8.89680 | -79.51812 | 3609 ft | 193 kts | 99° |
| 2026-05-07 03:06 | 8.89428 | -79.50490 | 3411 ft | 191 kts | 99° |
| 2026-05-07 03:06 | 8.89406 | -79.49189 | 3212 ft | 183 kts | 73° |
| 2026-05-07 03:06 | 8.89942 | -79.48070 | 3023 ft | 175 kts | 52° |
| 2026-05-07 03:07 | 8.90815 | -79.47257 | 2831 ft | 168 kts | 31° |
| 2026-05-07 03:07 | 8.91827 | -79.46675 | 2695 ft | 166 kts | 30° |
| 2026-05-07 03:07 | 8.92848 | -79.46087 | 2556 ft | 172 kts | 29° |
| 2026-05-07 03:07 | 8.93855 | -79.45509 | 2379 ft | 160 kts | 29° |
| 2026-05-07 03:08 | 8.94789 | -79.44974 | 2150 ft | 151 kts | 28° |
| 2026-05-07 03:08 | 8.95709 | -79.44447 | 1956 ft | 149 kts | 28° |
| 2026-05-07 03:08 | 8.96600 | -79.43937 | 1771 ft | 150 kts | 28° |
| 2026-05-07 03:08 | 8.97525 | -79.43407 | 1575 ft | 151 kts | 28° |
| 2026-05-07 03:09 | 8.98424 | -79.42892 | 1377 ft | 149 kts | 28° |
| 2026-05-07 03:09 | 8.99338 | -79.42369 | 1200 ft | 148 kts | 28° |
| 2026-05-07 03:09 | 9.00224 | -79.41861 | 1042 ft | 148 kts | 29° |
| 2026-05-07 03:09 | 9.01134 | -79.41340 | 865 ft | 148 kts | 29° |
| 2026-05-07 03:10 | 9.02026 | -79.40828 | 678 ft | 146 kts | 29° |
| 2026-05-07 03:10 | 9.02898 | -79.40329 | 481 ft | 146 kts | 30° |
| 2026-05-07 03:10 | 9.03775 | -79.39827 | 310 ft | 146 kts | 30° |
| 2026-05-07 03:10 | 9.04673 | -79.39313 | 119 ft | 146 kts | 30° |
| 2026-05-07 03:11 | 9.05527 | -79.38827 | 30 ft | 133 kts | 29° |
| 2026-05-07 03:11 | 9.06207 | -79.38438 | 30 ft | 89 kts | 29° |
| 2026-05-07 03:11 | 9.06656 | -79.38183 | 28 ft | 67 kts | 29° |
| 2026-05-07 03:11 | 9.07020 | -79.37976 | 29 ft | 43 kts | 28° |
| 2026-05-07 03:12 | 9.07168 | -79.37956 | 29 ft | 17 kts | 303° |
| 2026-05-07 03:12 | 9.07190 | -79.38060 | 29 ft | 15 kts | 233° |
| 2026-05-07 03:12 | 9.07105 | -79.38115 | 29 ft | 14 kts | 209° |
| 2026-05-07 03:12 | 9.07019 | -79.38163 | 29 ft | 14 kts | 209° |
| 2026-05-07 03:13 | 9.06942 | -79.38213 | 29 ft | 13 kts | 220° |
| 2026-05-07 03:13 | 9.06880 | -79.38292 | 29 ft | 16 kts | 237° |
| 2026-05-07 03:13 | 9.06807 | -79.38383 | 29 ft | 17 kts | 209° |
| 2026-05-07 03:13 | 9.06703 | -79.38436 | 29 ft | 16 kts | 207° |
| 2026-05-07 03:14 | 9.06604 | -79.38488 | 29 ft | 16 kts | 207° |
| 2026-05-07 03:14 | 9.06509 | -79.38539 | 29 ft | 15 kts | 207° |
| 2026-05-07 03:14 | 9.06355 | -79.38647 | 29 ft | 11 kts | 263° |
| 2026-05-07 03:15 | 9.06383 | -79.38718 | 29 ft | 11 kts | 298° |
| 2026-05-07 03:15 | 9.06370 | -79.38783 | 29 ft | 11 kts | 211° |
| 2026-05-07 03:15 | 9.06306 | -79.38809 | 29 ft | 9 kts | 234° |
| 2026-05-07 03:15 | 9.06301 | -79.38866 | 29 ft | 6 kts | 281° |
| 2026-05-07 03:16 | 9.06304 | -79.38880 | 29 ft | 1 kts | 281° |
| 2026-05-07 03:16 | 9.06305 | -79.38883 | 29 ft | 0 kts | 281° |